KRWF

Redwood Falls Municipal Airport

Redwood Falls, Minnesota, USA
METAR KRWF 171753Z AUTO 33007G15KT 10SM CLR 08/M04 A3047 RMK AO2 SLP329 T00781044 10078 21028 51014
Observed Flight Rules
Oct-17 @ 17:53 UTC (31 minutes ago) Visual Flight Rules
Wind Visibility Clouds
330° at 7 knots
 Gusting to 15 knots
10 miles
  • Clear skies
Temperatures Readings
Current 8°C / 46°F
Dewpoint -4°C / 25°F
Humidity 43%
Altimeter 30.47" Hg
Pressure 1032.9 hPa
Elevation 311
METAR KRWF 171753Z AUTO 33007G15KT 10SM CLR 08/M04 A3047 RMK AO2 SLP329 T00781044 10078 21028 51014
Observed Flight Rules
Oct-17 @ 17:53 UTC
(31 minutes ago)
VFR
Wind Visibility
330° at 7 knots
 Gusting to 15 knots
10 miles
Clouds
  • Clear skies
Temperature Dewpoint
8°C / 46°F -4°C / 25°F
Humidity Altimeter Pressure
43% 30.47" Hg 1032.9 hPa